TO10 weather

Aviosuperficie Ivrea Montalto Dora
Montalto Dora (TO), Piedmont, Italy

Public forecast

Using degrees Celsius for public forecast. Weather courtesy of forecast.io.

Closest aviation weather report (METAR) to Aviosuperficie Ivrea Montalto Dora

Closest report is Turin Airport, 19.1 nm (35.3 km) SSW. Retrieved 2019/12/15 15:20 UTC (5 minutes ago):

LIMF 151520Z 07002KT 7000 SCT050 07/04 Q1016

Closest aviation forecast (TAF) to Aviosuperficie Ivrea Montalto Dora

Closest forecast is Turin Airport, 19.1 nm (35.3 km) SSW. Retrieved 2019/12/15 12:23 UTC (3 hours ago):

TAF LIMF 151100Z 1512/1612 VRB05KT 7000 BKN020 BKN050 TEMPO 1522/1608 4000 DZ BKN012 BKN040